Time;durP1;ratioP1;P1;durP2;ratioP2;P2;SDS_P1;SDS_P2;PMS_P1;PMS_P2;Temp;Humidity;BMP_temperature;BMP_pressure;BME280_temperature;BME280_humidity;BME280_pressure;Samples;Min_cycle;Max_cycle;Signal;HPM_P1;HPM_P2
2022/07/18 00:01:02;;;;;;;4.47;2.80;;;14.20;99.90;;;;;;5076852;28;20031;-61
2022/07/18 00:03:28;;;;;;;6.10;2.80;;;14.10;99.90;;;;;;5095477;28;20363;-59
2022/07/18 00:05:53;;;;;;;3.30;2.70;;;14.10;99.90;;;;;;5094044;28;20080;-61
2022/07/18 00:08:19;;;;;;;2.80;2.13;;;14.10;99.90;;;;;;5090150;28;20537;-61
2022/07/18 00:10:45;;;;;;;2.30;2.10;;;14.10;99.90;;;;;;5088291;28;20098;-62
2022/07/18 00:13:10;;;;;;;3.75;2.35;;;14.00;99.90;;;;;;5091232;28;20024;-60
2022/07/18 00:15:37;;;;;;;2.40;2.20;;;14.10;99.90;;;;;;5068994;28;20399;-60
2022/07/18 00:18:03;;;;;;;2.80;2.00;;;14.10;99.90;;;;;;5091394;28;20463;-60
2022/07/18 00:20:29;;;;;;;2.30;2.10;;;14.00;99.90;;;;;;5097014;28;20782;-61
2022/07/18 00:22:54;;;;;;;4.57;3.22;;;14.00;99.90;;;;;;5078791;28;20144;-60
2022/07/18 00:25:21;;;;;;;2.95;2.50;;;14.00;99.90;;;;;;5092828;28;20363;-59
2022/07/18 00:27:47;;;;;;;2.70;2.40;;;14.00;99.90;;;;;;5082184;28;20020;-61
2022/07/18 00:30:13;;;;;;;2.28;2.05;;;14.00;99.90;;;;;;5086520;28;20035;-59
2022/07/18 00:32:39;;;;;;;3.50;2.60;;;14.10;99.90;;;;;;5091097;28;20406;-61
2022/07/18 00:35:05;;;;;;;2.22;1.58;;;14.00;99.90;;;;;;5093090;28;20110;-59
2022/07/18 00:37:31;;;;;;;2.72;2.28;;;14.10;99.90;;;;;;5081886;28;20028;-61
2022/07/18 00:39:56;;;;;;;2.00;1.80;;;14.10;99.90;;;;;;5091860;28;20104;-60
2022/07/18 00:42:22;;;;;;;2.45;1.75;;;14.10;99.90;;;;;;5090990;28;20026;-60
2022/07/18 00:44:55;;;;;;;2.80;2.20;;;14.00;99.90;;;;;;5094972;28;20024;-60
2022/07/18 00:47:21;;;;;;;3.55;2.15;;;14.10;99.90;;;;;;5089577;28;20038;-58
2022/07/18 00:49:47;;;;;;;2.55;2.35;;;14.00;99.90;;;;;;5089614;28;20070;-59
2022/07/18 00:52:13;;;;;;;2.78;2.13;;;14.00;99.90;;;;;;5095537;28;20036;-60
2022/07/18 00:54:39;;;;;;;3.00;2.08;;;14.00;99.90;;;;;;5088163;28;20028;-62
2022/07/18 00:57:05;;;;;;;3.47;2.30;;;14.00;99.90;;;;;;5108204;22;20032;-62
2022/07/18 01:02:15;;;;;;;1.92;1.70;;;13.90;99.90;;;;;;5097314;28;20473;-60
2022/07/18 01:04:41;;;;;;;2.50;2.30;;;13.90;99.90;;;;;;5103269;28;20055;-61
2022/07/18 01:07:06;;;;;;;2.50;2.17;;;13.90;99.90;;;;;;5087502;28;20031;-61
2022/07/18 01:09:32;;;;;;;2.15;1.98;;;13.90;99.90;;;;;;5100186;28;20035;-61
2022/07/18 01:11:58;;;;;;;3.97;2.38;;;13.90;99.90;;;;;;5088202;28;20405;-61
2022/07/18 01:14:25;;;;;;;2.25;2.05;;;13.80;99.90;;;;;;5100232;28;20031;-61
2022/07/18 01:16:50;;;;;;;4.55;2.63;;;13.80;99.90;;;;;;5102973;28;20122;-61
2022/07/18 01:19:16;;;;;;;2.40;2.20;;;13.80;99.90;;;;;;5085327;28;20035;-61
2022/07/18 01:21:42;;;;;;;3.17;2.15;;;13.70;99.90;;;;;;5091205;28;20409;-61
2022/07/18 01:24:07;;;;;;;2.88;2.13;;;13.70;99.90;;;;;;5098916;28;20062;-63
2022/07/18 01:26:33;;;;;;;3.80;2.28;;;13.70;99.90;;;;;;5081941;28;20123;-61
2022/07/18 01:28:59;;;;;;;5.97;1.85;;;13.70;99.90;;;;;;5077948;28;20784;-61
2022/07/18 01:31:25;;;;;;;2.30;2.10;;;13.70;99.90;;;;;;5100500;28;20054;-62
2022/07/18 01:33:54;;;;;;;3.13;2.55;;;13.70;99.90;;;;;;5098831;28;20503;-60
2022/07/18 01:36:19;;;;;;;2.22;1.98;;;13.60;99.90;;;;;;5098688;28;20107;-61
2022/07/18 01:38:45;;;;;;;3.10;2.33;;;13.60;99.90;;;;;;5084095;28;20494;-60
2022/07/18 01:41:11;;;;;;;2.20;1.80;;;13.60;99.90;;;;;;5095149;28;20046;-61
2022/07/18 01:43:41;;;;;;;2.75;2.35;;;13.60;99.90;;;;;;5092910;28;20025;-61
2022/07/18 01:46:07;;;;;;;2.53;2.33;;;13.50;99.90;;;;;;5102474;28;20034;-62
2022/07/18 01:48:33;;;;;;;2.28;2.08;;;13.50;99.90;;;;;;5097629;28;20157;-59
2022/07/18 01:50:58;;;;;;;3.53;2.53;;;13.50;99.90;;;;;;5095285;28;20537;-61
2022/07/18 01:53:24;;;;;;;2.40;2.20;;;13.50;99.90;;;;;;5104906;28;20363;-59
2022/07/18 01:55:51;;;;;;;2.65;2.40;;;13.50;99.90;;;;;;5101140;28;20343;-61
2022/07/18 01:58:17;;;;;;;2.92;2.20;;;13.50;99.90;;;;;;5099574;28;20020;-60
2022/07/18 02:00:42;;;;;;;3.95;2.42;;;13.40;99.90;;;;;;5096799;28;20034;-61
2022/07/18 02:03:08;;;;;;;2.28;2.08;;;13.40;99.90;;;;;;5091821;28;20035;-61
2022/07/18 02:05:33;;;;;;;3.17;2.15;;;13.40;99.90;;;;;;5098045;28;20023;-61
2022/07/18 02:07:59;;;;;;;1.98;1.88;;;13.40;99.90;;;;;;5082521;28;20016;-61
2022/07/18 02:10:25;;;;;;;2.67;2.05;;;13.40;99.90;;;;;;5072679;28;20074;-60
2022/07/18 02:12:51;;;;;;;2.47;2.28;;;13.50;99.90;;;;;;5098021;28;20077;-59
2022/07/18 02:15:17;;;;;;;2.95;2.45;;;13.40;99.90;;;;;;5094188;28;20111;-62
2022/07/18 02:17:43;;;;;;;2.85;2.55;;;13.50;99.90;;;;;;5102257;28;20102;-62
2022/07/18 02:20:11;;;;;;;3.75;2.25;;;13.50;99.90;;;;;;5093478;28;20069;-61
2022/07/18 02:22:37;;;;;;;2.15;1.95;;;13.50;99.90;;;;;;5103702;28;20030;-60
2022/07/18 02:25:04;;;;;;;3.80;2.30;;;13.50;99.90;;;;;;5068200;28;20028;-61
2022/07/18 02:27:30;;;;;;;3.63;2.10;;;13.50;99.90;;;;;;5098396;28;20019;-60
2022/07/18 02:29:55;;;;;;;2.75;2.20;;;13.60;99.90;;;;;;5100867;28;20331;-60
2022/07/18 02:32:23;;;;;;;2.88;2.10;;;13.60;99.90;;;;;;5103386;28;20020;-61
2022/07/18 02:34:49;;;;;;;2.15;1.95;;;13.60;99.90;;;;;;5101427;28;20493;-61
2022/07/18 02:37:14;;;;;;;2.40;2.20;;;13.60;99.90;;;;;;5101036;28;20023;-61
2022/07/18 02:39:40;;;;;;;2.50;1.95;;;13.60;99.90;;;;;;5081791;28;20042;-61
2022/07/18 02:42:05;;;;;;;2.83;2.45;;;13.60;99.90;;;;;;5102457;28;20023;-60
2022/07/18 02:44:31;;;;;;;2.95;2.38;;;13.60;99.90;;;;;;5104017;28;20020;-60
2022/07/18 02:46:57;;;;;;;3.38;2.30;;;13.70;99.90;;;;;;5099949;28;20047;-61
2022/07/18 02:49:26;;;;;;;2.53;2.17;;;13.60;99.90;;;;;;5076716;28;20027;-61
2022/07/18 02:52:06;;;;;;;3.30;1.98;;;13.60;99.90;;;;;;5102359;28;20024;-60
2022/07/18 02:54:36;;;;;;;2.38;2.17;;;13.60;99.90;;;;;;5103315;28;20039;-62
2022/07/18 02:57:02;;;;;;;2.17;1.95;;;13.60;99.90;;;;;;5081130;28;20122;-61
2022/07/18 02:59:28;;;;;;;2.50;2.30;;;13.50;99.90;;;;;;5101342;28;20051;-59
2022/07/18 03:01:55;;;;;;;2.90;2.28;;;13.50;99.90;;;;;;5065546;28;20135;-60
2022/07/18 03:04:22;;;;;;;2.33;1.95;;;13.50;99.90;;;;;;5081042;28;20045;-60
2022/07/18 03:06:48;;;;;;;2.08;1.88;;;13.40;99.90;;;;;;5090770;28;20024;-61
2022/07/18 03:09:15;;;;;;;3.03;2.40;;;13.50;99.90;;;;;;5082566;28;20130;-60
2022/07/18 03:11:41;;;;;;;3.40;2.47;;;13.40;99.90;;;;;;5096718;28;20043;-61
2022/07/18 03:14:07;;;;;;;2.20;2.00;;;13.40;99.90;;;;;;5101116;28;20398;-61
2022/07/18 03:16:32;;;;;;;2.58;2.08;;;13.40;99.90;;;;;;5099992;28;20036;-60
2022/07/18 03:18:58;;;;;;;2.72;2.45;;;13.40;99.90;;;;;;5069227;28;20039;-62
2022/07/18 03:21:24;;;;;;;2.35;2.13;;;13.40;99.90;;;;;;5080491;28;20477;-61
2022/07/18 03:23:49;;;;;;;2.55;2.30;;;13.40;99.90;;;;;;5075810;28;20016;-61
2022/07/18 03:26:15;;;;;;;3.47;2.55;;;13.40;99.90;;;;;;5102796;28;20428;-61
2022/07/18 03:28:41;;;;;;;4.00;2.38;;;13.40;99.90;;;;;;5090700;28;20099;-61
2022/07/18 03:31:06;;;;;;;3.35;2.30;;;13.40;99.90;;;;;;5099226;28;20032;-62
2022/07/18 03:33:32;;;;;;;2.10;1.90;;;13.40;99.90;;;;;;5076349;28;20069;-62
2022/07/18 03:35:57;;;;;;;3.08;2.28;;;13.50;99.90;;;;;;5095540;28;20339;-61
2022/07/18 03:38:23;;;;;;;3.70;2.15;;;13.50;99.90;;;;;;5100802;28;20052;-60
2022/07/18 03:40:49;;;;;;;2.42;1.90;;;13.50;99.90;;;;;;5091251;28;20056;-60
2022/07/18 03:43:14;;;;;;;2.90;2.35;;;13.50;99.90;;;;;;5105426;28;20460;-61
2022/07/18 03:45:40;;;;;;;2.65;2.45;;;13.50;99.90;;;;;;5096337;28;20062;-60
2022/07/18 03:48:06;;;;;;;2.55;2.35;;;13.50;99.90;;;;;;5100310;28;20090;-61
2022/07/18 03:50:31;;;;;;;2.20;2.00;;;13.50;99.90;;;;;;5093114;28;20024;-61
2022/07/18 03:52:57;;;;;;;2.92;2.00;;;13.50;99.90;;;;;;5074249;28;20123;-60
2022/07/18 03:55:23;;;;;;;5.22;2.60;;;13.50;99.90;;;;;;5100608;28;20028;-59
2022/07/18 03:57:48;;;;;;;2.72;2.53;;;13.50;99.90;;;;;;5096407;28;20350;-60
2022/07/18 04:00:15;;;;;;;2.65;2.42;;;13.50;99.90;;;;;;5091567;28;20442;-60
2022/07/18 04:02:42;;;;;;;5.50;2.75;;;13.60;99.90;;;;;;5069385;28;20027;-61
2022/07/18 04:05:09;;;;;;;3.20;2.65;;;13.60;99.90;;;;;;5083008;28;20397;-61
2022/07/18 04:07:38;;;;;;;2.78;2.40;;;13.60;99.90;;;;;;5101968;28;20016;-61
2022/07/18 04:10:05;;;;;;;3.47;2.67;;;13.70;99.90;;;;;;5083245;28;20563;-61
2022/07/18 04:12:31;;;;;;;2.63;2.33;;;13.70;99.90;;;;;;5082760;28;20147;-60
2022/07/18 04:14:56;;;;;;;3.05;2.78;;;13.70;99.90;;;;;;5096216;28;20211;-61
2022/07/18 04:17:22;;;;;;;3.25;2.50;;;13.70;99.90;;;;;;5066422;28;20120;-62
2022/07/18 04:19:48;;;;;;;3.40;2.90;;;13.70;99.90;;;;;;5098933;28;20157;-61
2022/07/18 04:22:13;;;;;;;3.28;2.85;;;13.70;99.90;;;;;;5096206;28;20026;-61
2022/07/18 04:24:39;;;;;;;2.42;2.22;;;13.70;99.90;;;;;;5097366;28;20091;-62
2022/07/18 04:27:05;;;;;;;3.20;2.65;;;13.80;99.90;;;;;;5099654;28;20097;-61
2022/07/18 04:29:31;;;;;;;3.42;2.85;;;13.80;99.90;;;;;;5100506;28;20031;-62
2022/07/18 04:31:57;;;;;;;2.65;2.45;;;13.80;99.90;;;;;;5080312;28;20036;-60
2022/07/18 04:34:23;;;;;;;3.70;2.92;;;13.80;99.90;;;;;;5103334;28;20104;-60
2022/07/18 04:36:49;;;;;;;3.30;2.85;;;13.80;99.90;;;;;;5098050;28;20051;-61
2022/07/18 04:39:16;;;;;;;3.92;2.83;;;13.80;99.90;;;;;;5091004;28;20485;-61
2022/07/18 04:41:42;;;;;;;3.70;2.85;;;13.80;99.90;;;;;;5078888;28;20020;-61
2022/07/18 04:44:08;;;;;;;3.47;2.60;;;13.90;99.90;;;;;;5082314;28;20067;-59
2022/07/18 04:46:33;;;;;;;3.40;2.92;;;13.90;99.90;;;;;;5076470;28;20074;-60
2022/07/18 04:48:59;;;;;;;4.20;2.97;;;13.90;99.90;;;;;;5076985;28;20055;-61
2022/07/18 04:51:24;;;;;;;3.55;3.20;;;14.00;99.90;;;;;;5096450;28;20402;-61
2022/07/18 04:53:50;;;;;;;3.55;3.00;;;14.00;99.90;;;;;;5092869;28;20020;-61
2022/07/18 04:56:15;;;;;;;4.22;3.25;;;14.10;99.90;;;;;;5091990;28;20028;-60
2022/07/18 04:58:41;;;;;;;4.97;3.45;;;14.20;99.90;;;;;;5096973;28;20036;-61
2022/07/18 05:01:07;;;;;;;4.43;2.88;;;14.30;99.90;;;;;;5083070;28;20063;-61
2022/07/18 05:03:32;;;;;;;4.68;3.45;;;14.30;99.90;;;;;;5072547;28;20035;-61
2022/07/18 05:05:58;;;;;;;3.67;3.28;;;14.40;99.90;;;;;;5095311;28;20038;-60
2022/07/18 05:08:23;;;;;;;3.83;3.20;;;14.50;99.90;;;;;;5099241;28;20047;-61
2022/07/18 05:10:49;;;;;;;3.88;3.47;;;14.60;99.90;;;;;;5079800;28;20397;-61
2022/07/18 05:13:14;;;;;;;4.90;3.50;;;14.70;99.90;;;;;;5097403;28;20107;-61
2022/07/18 05:15:40;;;;;;;4.07;3.67;;;14.80;99.90;;;;;;5089866;28;20029;-61
2022/07/18 05:18:06;;;;;;;5.90;3.47;;;14.90;99.90;;;;;;5072358;28;20080;-62
2022/07/18 05:20:31;;;;;;;3.88;3.25;;;14.90;99.90;;;;;;5097493;28;20157;-62
2022/07/18 05:22:57;;;;;;;3.33;3.10;;;15.00;99.90;;;;;;5098459;28;20042;-62
2022/07/18 05:25:23;;;;;;;3.25;2.95;;;15.00;99.90;;;;;;5078455;28;20031;-61
2022/07/18 05:27:49;;;;;;;5.97;4.00;;;15.10;99.90;;;;;;5079498;28;20106;-61
2022/07/18 05:30:15;;;;;;;5.95;3.17;;;15.10;99.90;;;;;;5081703;28;20023;-62
2022/07/18 05:32:42;;;;;;;3.90;2.67;;;15.20;99.90;;;;;;5103901;28;20028;-61
2022/07/18 05:35:09;;;;;;;5.22;3.80;;;15.20;99.90;;;;;;5079145;28;20119;-61
2022/07/18 05:37:38;;;;;;;6.65;2.95;;;15.30;99.90;;;;;;5075325;28;20103;-61
2022/07/18 05:40:05;;;;;;;4.25;3.25;;;15.30;99.90;;;;;;5100265;28;20035;-62
2022/07/18 05:42:31;;;;;;;4.70;3.50;;;15.30;99.90;;;;;;5101160;28;20039;-61
2022/07/18 05:44:57;;;;;;;3.90;3.22;;;15.40;99.90;;;;;;5098944;28;20036;-61
2022/07/18 05:47:22;;;;;;;4.28;3.47;;;15.40;99.90;;;;;;5101674;28;20085;-62
2022/07/18 05:49:48;;;;;;;4.43;3.40;;;15.50;99.90;;;;;;5096418;28;20034;-62
2022/07/18 05:52:13;;;;;;;4.20;3.80;;;15.60;99.90;;;;;;5099029;28;20024;-61
2022/07/18 05:54:39;;;;;;;6.65;3.75;;;15.60;99.90;;;;;;5090031;28;20028;-62
2022/07/18 05:57:05;;;;;;;5.07;3.75;;;15.70;99.90;;;;;;5100387;28;20027;-61
2022/07/18 05:59:31;;;;;;;4.60;3.53;;;15.80;99.90;;;;;;5082844;28;20028;-62
2022/07/18 06:01:56;;;;;;;4.32;3.35;;;15.90;99.90;;;;;;5083782;28;20040;-61
2022/07/18 06:04:22;;;;;;;7.78;3.85;;;16.00;99.90;;;;;;5078339;28;20024;-61
2022/07/18 06:06:49;;;;;;;8.73;4.32;;;16.10;99.90;;;;;;5085448;28;20432;-61
2022/07/18 06:09:16;;;;;;;3.90;3.60;;;16.20;99.90;;;;;;5071155;28;20012;-62
2022/07/18 06:11:42;;;;;;;7.15;4.47;;;16.30;99.90;;;;;;5093092;28;20016;-60
2022/07/18 06:14:08;;;;;;;4.55;3.88;;;16.40;99.90;;;;;;5091391;28;20036;-61
2022/07/18 06:16:34;;;;;;;5.47;3.50;;;16.50;99.90;;;;;;5087099;28;20079;-61
2022/07/18 06:18:59;;;;;;;4.93;4.00;;;16.50;99.90;;;;;;5065223;28;20115;-62
2022/07/18 06:21:25;;;;;;;6.53;3.88;;;16.60;99.90;;;;;;5070422;28;20028;-61
2022/07/18 06:23:51;;;;;;;6.93;3.88;;;16.70;99.90;;;;;;5098725;28;20600;-61
2022/07/18 06:26:17;;;;;;;4.63;3.95;;;16.80;99.90;;;;;;5100782;28;20095;-62
2022/07/18 06:28:42;;;;;;;6.32;4.22;;;16.90;99.90;;;;;;5097605;28;20028;-61
2022/07/18 06:31:08;;;;;;;4.78;3.75;;;16.90;99.90;;;;;;5108162;28;20410;-61
2022/07/18 06:33:33;;;;;;;4.78;4.25;;;17.00;99.90;;;;;;5092454;28;20028;-62
2022/07/18 06:35:59;;;;;;;6.10;3.95;;;17.20;99.90;;;;;;5097682;28;20449;-61
2022/07/18 06:38:25;;;;;;;5.40;4.22;;;17.30;99.90;;;;;;5090632;28;20084;-61
2022/07/18 06:40:50;;;;;;;8.13;4.47;;;17.40;99.90;;;;;;5090930;28;20424;-61
2022/07/18 06:43:19;;;;;;;4.55;3.92;;;17.50;99.90;;;;;;5106765;28;20031;-61
2022/07/18 06:45:48;;;;;;;4.68;4.20;;;17.60;99.90;;;;;;5099819;28;20521;-61
2022/07/18 06:48:14;;;;;;;6.28;3.80;;;17.80;99.90;;;;;;5107870;28;20473;-61
2022/07/18 06:50:40;;;;;;;7.78;4.68;;;17.90;99.90;;;;;;5099677;28;20020;-62
2022/07/18 06:53:05;;;;;;;7.25;4.45;;;18.00;99.90;;;;;;5102304;28;20575;-61
2022/07/18 06:55:31;;;;;;;5.68;3.90;;;18.10;99.90;;;;;;5085329;28;20397;-60
2022/07/18 06:57:56;;;;;;;6.93;4.50;;;18.20;99.90;;;;;;5100744;28;20069;-61
2022/07/18 07:00:22;;;;;;;5.68;4.32;;;18.30;99.90;;;;;;5105799;28;20108;-62
2022/07/18 07:02:49;;;;;;;7.68;4.47;;;18.40;99.90;;;;;;5071155;28;20058;-61
2022/07/18 07:05:17;;;;;;;6.03;4.63;;;18.60;99.90;;;;;;5090418;28;20019;-62
2022/07/18 07:07:43;;;;;;;7.22;4.85;;;18.70;99.90;;;;;;5102479;28;20020;-61
2022/07/18 07:10:09;;;;;;;8.73;4.93;;;18.90;99.90;;;;;;5100726;28;20032;-62
2022/07/18 07:12:49;;;;;;;5.55;4.38;;;19.10;99.90;;;;;;5102061;28;20027;-61
2022/07/18 07:15:17;;;;;;;6.85;4.43;;;19.20;99.90;;;;;;5085200;28;20016;-62
2022/07/18 07:17:43;;;;;;;6.32;5.05;;;19.40;99.90;;;;;;5103436;28;20401;-60
2022/07/18 07:20:10;;;;;;;7.95;5.07;;;19.70;99.90;;;;;;5074887;28;20035;-62
2022/07/18 07:22:47;;;;;;;6.30;4.60;;;19.80;99.90;;;;;;5094249;28;20028;-61
2022/07/18 07:25:14;;;;;;;8.77;5.10;;;19.90;99.90;;;;;;5084207;28;20104;-62
2022/07/18 07:27:40;;;;;;;6.63;4.68;;;20.10;99.90;;;;;;5082393;28;20582;-62
2022/07/18 07:30:06;;;;;;;5.65;4.43;;;20.20;99.90;;;;;;5102216;28;20031;-60
2022/07/18 07:32:37;;;;;;;7.85;4.70;;;20.40;99.90;;;;;;5102515;28;20047;-61
2022/07/18 07:35:06;;;;;;;5.80;4.80;;;20.50;99.90;;;;;;5099680;28;20023;-61
2022/07/18 07:37:35;;;;;;;6.85;4.43;;;20.50;99.90;;;;;;5076972;28;20035;-62
2022/07/18 07:40:02;;;;;;;9.77;5.25;;;20.60;99.90;;;;;;5102610;28;20034;-62
2022/07/18 07:42:27;;;;;;;8.88;4.63;;;20.70;99.90;;;;;;5096087;28;20027;-62
2022/07/18 07:44:53;;;;;;;6.65;4.70;;;20.90;99.90;;;;;;5083539;28;20023;-63
2022/07/18 07:47:18;;;;;;;7.97;4.95;;;21.10;99.90;;;;;;5095535;28;20016;-62
2022/07/18 07:49:44;;;;;;;7.90;4.82;;;21.30;99.90;;;;;;5101040;28;20019;-62
2022/07/18 07:52:13;;;;;;;6.82;5.13;;;21.60;99.90;;;;;;5087364;28;20034;-63
2022/07/18 07:54:41;;;;;;;7.28;4.88;;;21.80;99.90;;;;;;5081885;28;20027;-62
2022/07/18 07:57:07;;;;;;;7.82;5.32;;;21.80;99.90;;;;;;5087729;28;20032;-62
2022/07/18 07:59:32;;;;;;;7.97;4.88;;;21.90;99.90;;;;;;5103474;28;20031;-62
2022/07/18 08:01:59;;;;;;;8.38;4.95;;;22.00;99.90;;;;;;5084366;28;20056;-63
2022/07/18 08:04:25;;;;;;;5.50;4.60;;;22.10;99.90;;;;;;5103190;28;20028;-63
2022/07/18 08:06:51;;;;;;;6.32;5.13;;;22.20;99.90;;;;;;5098357;28;20016;-63
2022/07/18 08:09:16;;;;;;;6.07;4.63;;;22.40;99.90;;;;;;5105182;28;20088;-63
2022/07/18 08:11:42;;;;;;;8.25;5.20;;;22.50;99.90;;;;;;5096102;28;20036;-63
2022/07/18 08:14:08;;;;;;;7.07;5.03;;;22.60;99.90;;;;;;5106223;28;20100;-62
2022/07/18 08:16:33;;;;;;;7.00;5.78;;;22.70;99.90;;;;;;5079434;28;20050;-63
2022/07/18 08:18:59;;;;;;;6.93;4.68;;;22.80;99.90;;;;;;5099896;28;20070;-63
2022/07/18 08:21:25;;;;;;;6.88;5.53;;;23.00;99.60;;;;;;5096475;28;20455;-63
2022/07/18 08:23:50;;;;;;;6.75;5.20;;;23.20;98.10;;;;;;5079873;28;20088;-63
2022/07/18 08:26:16;;;;;;;8.35;5.80;;;23.30;98.20;;;;;;5097854;28;20390;-63
2022/07/18 08:28:41;;;;;;;6.95;5.15;;;23.40;98.00;;;;;;5079537;28;20046;-63
2022/07/18 08:31:07;;;;;;;6.28;4.75;;;23.50;96.50;;;;;;5099930;28;20066;-63
2022/07/18 08:33:33;;;;;;;8.43;4.30;;;23.60;96.50;;;;;;5097567;28;20023;-61
2022/07/18 08:35:58;;;;;;;5.10;4.18;;;23.80;97.10;;;;;;5087296;28;20047;-63
2022/07/18 08:38:24;;;;;;;6.15;4.18;;;24.00;96.50;;;;;;5102225;28;20095;-63
2022/07/18 08:40:52;;;;;;;5.15;4.38;;;24.10;95.90;;;;;;5092725;28;20024;-62
2022/07/18 08:43:18;;;;;;;6.32;4.97;;;24.30;94.90;;;;;;5083423;28;20046;-63
2022/07/18 08:45:45;;;;;;;6.38;4.13;;;24.30;94.50;;;;;;5097088;28;20381;-62
2022/07/18 08:48:15;;;;;;;8.88;4.55;;;24.40;95.30;;;;;;5100566;28;20027;-63
2022/07/18 08:50:48;;;;;;;7.53;4.72;;;24.50;94.60;;;;;;5078848;28;20047;-63
2022/07/18 08:53:15;;;;;;;5.90;4.13;;;24.60;94.60;;;;;;5083612;28;20466;-64
2022/07/18 08:55:41;;;;;;;7.50;4.80;;;24.50;94.70;;;;;;5081684;28;20479;-63
2022/07/18 08:58:07;;;;;;;5.20;4.53;;;24.30;94.40;;;;;;5099134;28;20036;-63
2022/07/18 09:00:35;;;;;;;6.50;4.20;;;24.30;94.10;;;;;;5083646;28;20045;-62
2022/07/18 09:03:02;;;;;;;6.35;4.07;;;24.40;94.40;;;;;;5082455;28;20482;-63
2022/07/18 09:05:28;;;;;;;6.15;4.10;;;24.60;94.60;;;;;;5082636;28;20047;-63
2022/07/18 09:08:07;;;;;;;5.35;4.15;;;24.80;95.20;;;;;;5075884;28;20020;-63
2022/07/18 09:10:53;;;;;;;4.60;3.63;;;25.00;93.30;;;;;;5093128;28;20118;-63
2022/07/18 09:13:21;;;;;;;;;;;25.20;92.00;;;;;;5100309;28;20027;-64
2022/07/18 09:16:08;;;;;;;5.07;3.75;;;25.20;92.60;;;;;;5097832;28;19918;-63
2022/07/18 09:18:36;;;;;;;5.05;3.25;;;25.50;93.00;;;;;;5092052;28;20042;-63
2022/07/18 09:21:05;;;;;;;5.88;4.03;;;25.70;92.20;;;;;;5084972;28;20072;-64
2022/07/18 09:23:33;;;;;;;4.45;3.35;;;25.60;91.50;;;;;;5096803;28;20056;-64
2022/07/18 09:26:03;;;;;;;4.82;3.60;;;25.50;92.70;;;;;;5104337;28;20431;-63
2022/07/18 09:28:45;;;;;;;4.15;3.75;;;25.50;92.60;;;;;;5096215;28;20016;-63
2022/07/18 09:31:21;;;;;;;5.80;3.90;;;25.60;93.30;;;;;;5082086;28;20023;-64
2022/07/18 09:34:13;;;;;;;4.93;3.90;;;25.80;92.30;;;;;;5079461;28;20032;-64
2022/07/18 09:36:55;;;;;;;5.60;4.30;;;26.00;90.90;;;;;;5086864;28;20038;-64
2022/07/18 09:39:21;;;;;;;5.30;4.45;;;26.00;91.30;;;;;;5089416;28;20020;-63
2022/07/18 09:41:47;;;;;;;5.65;3.88;;;26.00;91.60;;;;;;5099524;28;20035;-64
2022/07/18 09:44:17;;;;;;;4.57;3.55;;;26.00;90.70;;;;;;5100388;28;20023;-64
2022/07/18 09:47:02;;;;;;;4.70;3.35;;;26.00;91.80;;;;;;5100481;28;20069;-63
2022/07/18 09:49:32;;;;;;;3.97;3.47;;;26.00;91.70;;;;;;5070490;28;20019;-64
2022/07/18 09:52:08;;;;;;;5.93;3.35;;;25.90;91.50;;;;;;5098930;28;20371;-65
2022/07/18 09:54:42;;;;;;;4.82;3.47;;;26.00;92.20;;;;;;5101222;28;20024;-63
2022/07/18 09:57:09;;;;;;;4.28;3.13;;;26.10;92.10;;;;;;5097634;28;20020;-64
2022/07/18 09:59:36;;;;;;;4.88;3.17;;;26.10;92.40;;;;;;5085593;28;20508;-64
2022/07/18 10:02:05;;;;;;;3.85;3.22;;;26.10;91.30;;;;;;5069683;28;20025;-63
2022/07/18 10:04:31;;;;;;;4.15;3.75;;;26.10;91.60;;;;;;5104304;28;20034;-66
2022/07/18 10:06:57;;;;;;;4.72;3.60;;;26.10;90.40;;;;;;5094634;28;20032;-64
2022/07/18 10:09:23;;;;;;;4.78;3.35;;;26.10;92.00;;;;;;5106375;28;20095;-63
2022/07/18 10:11:49;;;;;;;5.13;3.20;;;26.10;91.40;;;;;;5076081;28;20036;-63
2022/07/18 10:14:14;;;;;;;4.97;3.45;;;26.10;91.10;;;;;;5108485;28;20509;-62
2022/07/18 10:16:41;;;;;;;5.47;3.72;;;26.10;91.70;;;;;;5091233;28;20080;-63
2022/07/18 10:19:07;;;;;;;3.17;2.78;;;26.10;91.00;;;;;;5100366;28;20056;-63
2022/07/18 10:21:33;;;;;;;4.40;3.22;;;26.00;91.70;;;;;;5104175;28;20074;-63
2022/07/18 10:24:00;;;;;;;6.13;3.40;;;26.10;90.90;;;;;;5094952;28;20031;-63
2022/07/18 10:26:27;;;;;;;5.35;3.83;;;26.30;91.10;;;;;;5105634;28;20016;-64
2022/07/18 10:29:15;;;;;;;5.47;3.80;;;26.40;89.30;;;;;;5093981;28;20025;-63
2022/07/18 10:32:00;;;;;;;4.75;3.45;;;26.50;90.20;;;;;;5098690;28;20028;-62
2022/07/18 10:34:33;;;;;;;3.78;3.30;;;26.50;90.60;;;;;;5093485;28;20027;-63
2022/07/18 10:37:02;;;;;;;4.22;3.50;;;26.50;90.90;;;;;;5094542;28;20042;-63
2022/07/18 10:39:42;;;;;;;5.00;3.58;;;26.50;90.50;;;;;;5104091;28;20020;-64
2022/07/18 10:42:11;;;;;;;5.03;3.72;;;26.60;91.00;;;;;;5071119;28;20093;-65
2022/07/18 10:44:40;;;;;;;4.20;3.80;;;26.70;89.90;;;;;;5103414;28;20015;-63
2022/07/18 10:47:20;;;;;;;4.60;3.60;;;26.60;88.90;;;;;;5094300;28;20023;-64
2022/07/18 10:49:46;;;;;;;5.75;3.60;;;26.60;90.60;;;;;;5103969;28;20047;-63
2022/07/18 10:52:27;;;;;;;4.22;3.83;;;26.50;90.10;;;;;;5073294;28;20237;-63
2022/07/18 10:57:37;;;;;;;4.77;3.77;;;26.70;89.80;;;;;;5085238;28;20028;-65
2022/07/18 11:00:07;;;;;;;5.38;4.88;;;26.70;90.30;;;;;;5107587;28;20831;-64
2022/07/18 11:02:36;;;;;;;5.20;4.70;;;26.70;88.80;;;;;;5069604;28;20031;-64
2022/07/18 11:05:03;;;;;;;4.30;3.90;;;26.70;89.10;;;;;;5101903;28;20484;-62
2022/07/18 11:07:29;;;;;;;7.72;4.45;;;26.60;84.00;;;;;;5100643;28;20023;-63
2022/07/18 11:09:54;;;;;;;5.70;3.53;;;26.60;88.60;;;;;;5101593;28;20104;-64
2022/07/18 11:12:30;;;;;;;5.05;4.18;;;26.60;87.10;;;;;;5102598;28;20015;-64
2022/07/18 11:15:45;;;;;;;5.68;3.53;;;26.70;88.60;;;;;;5102372;28;20020;-63
2022/07/18 11:18:11;;;;;;;4.43;3.83;;;26.80;88.10;;;;;;5086789;28;20051;-63
2022/07/18 11:20:39;;;;;;;7.97;4.03;;;26.80;86.20;;;;;;5092111;28;20027;-64
2022/07/18 11:23:20;;;;;;;5.28;4.00;;;26.80;86.20;;;;;;5101188;28;20023;-64
2022/07/18 11:25:49;;;;;;;6.88;4.53;;;26.80;85.40;;;;;;5099387;28;20020;-64
2022/07/18 11:28:15;;;;;;;4.93;4.00;;;26.90;85.10;;;;;;5095159;28;20379;-63
2022/07/18 11:30:42;;;;;;;5.53;4.30;;;26.90;84.40;;;;;;5087900;28;20022;-64
2022/07/18 11:33:22;;;;;;;4.82;4.13;;;27.00;84.90;;;;;;5098715;28;20029;-63
2022/07/18 11:35:48;;;;;;;6.15;3.83;;;27.10;83.90;;;;;;5096074;28;20386;-64
2022/07/18 11:38:14;;;;;;;5.90;4.13;;;27.10;84.20;;;;;;5106149;28;20036;-64
2022/07/18 11:40:50;;;;;;;4.57;3.67;;;27.10;84.50;;;;;;5099386;28;20039;-64
2022/07/18 11:43:24;;;;;;;6.93;3.80;;;27.10;84.40;;;;;;5091687;28;20645;-64
2022/07/18 11:46:08;;;;;;;5.85;3.90;;;27.20;83.40;;;;;;5096021;28;20020;-63
2022/07/18 11:48:36;;;;;;;5.15;3.70;;;27.20;82.40;;;;;;5085563;28;20090;-64
2022/07/18 11:51:02;;;;;;;4.88;4.15;;;27.20;83.90;;;;;;5101115;28;20036;-64
2022/07/18 11:53:28;;;;;;;4.65;3.97;;;27.30;83.30;;;;;;5083709;28;20026;-64
2022/07/18 11:55:55;;;;;;;4.38;3.72;;;27.30;83.50;;;;;;5100164;28;20172;-64
2022/07/18 11:58:22;;;;;;;4.75;3.72;;;27.50;84.00;;;;;;5083850;28;20508;-63
2022/07/18 12:00:48;;;;;;;5.10;3.80;;;27.40;81.20;;;;;;5101270;28;20103;-63
2022/07/18 12:03:20;;;;;;;4.93;4.00;;;27.50;83.80;;;;;;5091631;28;20028;-63
2022/07/18 12:05:52;;;;;;;4.05;3.63;;;27.50;82.50;;;;;;5102627;28;20027;-63
2022/07/18 12:08:34;;;;;;;3.47;3.17;;;27.60;83.50;;;;;;5100724;28;20481;-63
2022/07/18 12:11:20;;;;;;;5.65;3.72;;;27.60;82.00;;;;;;5100827;28;20027;-64
2022/07/18 12:13:52;;;;;;;3.55;3.10;;;27.50;84.10;;;;;;5084442;28;20047;-63
2022/07/18 12:16:31;;;;;;;4.50;4.10;;;27.50;84.10;;;;;;5071425;28;20055;-63
2022/07/18 12:19:05;;;;;;;4.50;4.05;;;27.60;83.70;;;;;;5070008;28;20433;-63
2022/07/18 12:21:44;;;;;;;6.20;4.45;;;27.60;84.40;;;;;;5098685;28;20016;-64
2022/07/18 12:24:34;;;;;;;5.28;4.70;;;27.70;81.60;;;;;;5100855;28;20020;-64
2022/07/18 12:27:21;;;;;;;5.05;3.85;;;27.70;79.40;;;;;;5099743;28;20375;-63
2022/07/18 12:30:11;;;;;;;4.30;3.72;;;27.70;79.40;;;;;;5101135;28;20417;-63
2022/07/18 12:32:44;;;;;;;4.05;3.65;;;27.70;78.80;;;;;;5073574;28;20736;-64
2022/07/18 12:35:26;;;;;;;4.95;4.03;;;27.70;78.10;;;;;;5099661;28;20016;-64
2022/07/18 12:38:09;;;;;;;5.80;4.35;;;27.60;78.50;;;;;;5087880;28;20516;-63
2022/07/18 12:41:01;;;;;;;3.65;3.25;;;27.60;77.10;;;;;;5098750;28;20560;-63
2022/07/18 12:43:38;;;;;;;7.22;4.00;;;27.60;80.80;;;;;;5063249;28;20027;-64
2022/07/18 12:46:07;;;;;;;4.63;3.65;;;27.60;80.30;;;;;;5081691;28;20024;-64
2022/07/18 12:48:33;;;;;;;5.47;3.95;;;27.60;80.80;;;;;;5095185;28;20024;-63
2022/07/18 12:51:07;;;;;;;6.90;3.97;;;27.70;79.80;;;;;;5099468;28;20024;-64
2022/07/18 12:53:35;;;;;;;4.43;3.70;;;27.80;81.30;;;;;;5093593;28;20035;-63
2022/07/18 12:56:01;;;;;;;4.35;3.47;;;28.00;81.10;;;;;;5097961;28;20111;-63
2022/07/18 12:58:27;;;;;;;4.85;3.55;;;28.30;80.50;;;;;;5116446;22;20123;-65